sensor_id;sensor_type;location;lat;lon;timestamp;pressure;altitude;pressure_sealevel;temperature;humidity
26859;BME280;14429;48.346;16.338;2023-04-28T00:00:10;100120.47;;;15.32;47.70
26859;BME280;14429;48.346;16.338;2023-04-28T00:02:36;100116.53;;;15.46;45.89
26859;BME280;14429;48.346;16.338;2023-04-28T00:05:03;100116.94;;;15.73;47.18
26859;BME280;14429;48.346;16.338;2023-04-28T00:07:29;100103.78;;;15.59;47.05
26859;BME280;14429;48.346;16.338;2023-04-28T00:09:54;100116.41;;;15.79;47.17
26859;BME280;14429;48.346;16.338;2023-04-28T00:12:20;100102.84;;;15.49;44.65
26859;BME280;14429;48.346;16.338;2023-04-28T00:14:45;100109.09;;;14.96;45.28
26859;BME280;14429;48.346;16.338;2023-04-28T00:17:11;100108.28;;;15.59;47.33
26859;BME280;14429;48.346;16.338;2023-04-28T00:19:36;100102.97;;;15.79;47.08
26859;BME280;14429;48.346;16.338;2023-04-28T00:22:03;100108.06;;;15.92;46.89
26859;BME280;14429;48.346;16.338;2023-04-28T00:24:28;100103.13;;;15.66;43.62
26859;BME280;14429;48.346;16.338;2023-04-28T00:26:54;100113.44;;;15.62;44.58
26859;BME280;14429;48.346;16.338;2023-04-28T00:29:19;100104.81;;;15.78;46.87
26859;BME280;14429;48.346;16.338;2023-04-28T00:31:44;100098.25;;;16.02;46.59
26859;BME280;14429;48.346;16.338;2023-04-28T00:34:10;100095.28;;;16.16;45.94
26859;BME280;14429;48.346;16.338;2023-04-28T00:36:35;100101.81;;;16.23;45.96
26859;BME280;14429;48.346;16.338;2023-04-28T00:39:02;100099.94;;;16.03;46.03
26859;BME280;14429;48.346;16.338;2023-04-28T00:41:28;100097.59;;;16.20;45.71
26859;BME280;14429;48.346;16.338;2023-04-28T00:43:53;100092.78;;;16.24;45.87
26859;BME280;14429;48.346;16.338;2023-04-28T00:46:20;100091.53;;;16.28;45.78
26859;BME280;14429;48.346;16.338;2023-04-28T00:48:46;100088.72;;;16.29;45.51
26859;BME280;14429;48.346;16.338;2023-04-28T00:51:12;100095.69;;;16.32;45.63
26859;BME280;14429;48.346;16.338;2023-04-28T00:53:38;100088.06;;;16.37;45.56
26859;BME280;14429;48.346;16.338;2023-04-28T00:56:05;100092.34;;;16.39;45.45
26859;BME280;14429;48.346;16.338;2023-04-28T00:58:32;100093.69;;;16.34;45.52
26859;BME280;14429;48.346;16.338;2023-04-28T01:01:01;100092.50;;;15.76;45.17
26859;BME280;14429;48.346;16.338;2023-04-28T01:03:27;100091.16;;;16.01;46.06
26859;BME280;14429;48.346;16.338;2023-04-28T01:05:53;100087.28;;;15.94;42.10
26859;BME280;14429;48.346;16.338;2023-04-28T01:08:22;100095.13;;;14.37;40.82
26859;BME280;14429;48.346;16.338;2023-04-28T01:10:48;100097.75;;;15.25;47.87
26859;BME280;14429;48.346;16.338;2023-04-28T01:13:14;100086.44;;;15.52;46.59
26859;BME280;14429;48.346;16.338;2023-04-28T01:15:40;100091.63;;;15.34;42.39
26859;BME280;14429;48.346;16.338;2023-04-28T01:18:05;100089.63;;;15.57;46.71
26859;BME280;14429;48.346;16.338;2023-04-28T01:20:31;100078.44;;;14.98;43.16
26859;BME280;14429;48.346;16.338;2023-04-28T01:22:56;100093.34;;;13.34;42.45
26859;BME280;14429;48.346;16.338;2023-04-28T01:25:23;100086.13;;;14.81;49.09
26859;BME280;14429;48.346;16.338;2023-04-28T01:27:48;100089.44;;;15.28;48.12
26859;BME280;14429;48.346;16.338;2023-04-28T01:30:14;100081.25;;;14.54;46.47
26859;BME280;14429;48.346;16.338;2023-04-28T01:32:39;100072.38;;;15.07;48.24
26859;BME280;14429;48.346;16.338;2023-04-28T01:35:05;100077.00;;;14.94;47.29
26859;BME280;14429;48.346;16.338;2023-04-28T01:37:31;100078.53;;;14.32;44.04
26859;BME280;14429;48.346;16.338;2023-04-28T01:39:56;100078.38;;;13.66;42.56
26859;BME280;14429;48.346;16.338;2023-04-28T01:42:23;100079.06;;;13.80;49.60
26859;BME280;14429;48.346;16.338;2023-04-28T01:44:48;100083.53;;;13.69;46.56
26859;BME280;14429;48.346;16.338;2023-04-28T01:47:14;100073.59;;;13.35;48.77
26859;BME280;14429;48.346;16.338;2023-04-28T01:49:39;100090.09;;;14.32;50.46
26859;BME280;14429;48.346;16.338;2023-04-28T01:52:05;100082.75;;;14.13;45.28
26859;BME280;14429;48.346;16.338;2023-04-28T01:54:30;100086.91;;;14.17;49.25
26859;BME280;14429;48.346;16.338;2023-04-28T01:56:55;100077.72;;;14.85;49.10
26859;BME280;14429;48.346;16.338;2023-04-28T01:59:22;100077.72;;;15.07;48.57
26859;BME280;14429;48.346;16.338;2023-04-28T02:01:47;100077.00;;;14.94;48.38
26859;BME280;14429;48.346;16.338;2023-04-28T02:04:13;100074.78;;;14.78;46.92
26859;BME280;14429;48.346;16.338;2023-04-28T02:06:38;100072.84;;;15.01;47.65
26859;BME280;14429;48.346;16.338;2023-04-28T02:09:04;100082.03;;;14.22;45.39
26859;BME280;14429;48.346;16.338;2023-04-28T02:11:29;100085.66;;;14.10;42.98
26859;BME280;14429;48.346;16.338;2023-04-28T02:13:55;100083.56;;;14.58;49.15
26859;BME280;14429;48.346;16.338;2023-04-28T02:16:21;100083.41;;;14.27;47.13
26859;BME280;14429;48.346;16.338;2023-04-28T02:18:47;100080.13;;;13.77;44.72
26859;BME280;14429;48.346;16.338;2023-04-28T02:21:12;100080.88;;;14.02;47.91
26859;BME280;14429;48.346;16.338;2023-04-28T02:23:38;100082.50;;;14.05;45.11
26859;BME280;14429;48.346;16.338;2023-04-28T02:26:03;100074.66;;;13.45;43.82
26859;BME280;14429;48.346;16.338;2023-04-28T02:28:29;100071.63;;;13.26;44.44
26859;BME280;14429;48.346;16.338;2023-04-28T02:31:02;100080.56;;;13.15;48.95
26859;BME280;14429;48.346;16.338;2023-04-28T02:33:29;100079.00;;;13.00;48.20
26859;BME280;14429;48.346;16.338;2023-04-28T02:35:57;100078.06;;;13.47;51.20
26859;BME280;14429;48.346;16.338;2023-04-28T02:38:23;100077.47;;;13.08;45.42
26859;BME280;14429;48.346;16.338;2023-04-28T02:40:56;100076.75;;;11.96;45.52
26859;BME280;14429;48.346;16.338;2023-04-28T02:43:21;100079.84;;;11.90;47.80
26859;BME280;14429;48.346;16.338;2023-04-28T02:45:47;100083.94;;;11.17;47.40
26859;BME280;14429;48.346;16.338;2023-04-28T02:48:12;100088.78;;;10.71;48.59
26859;BME280;14429;48.346;16.338;2023-04-28T02:50:39;100088.34;;;11.04;50.78
26859;BME280;14429;48.346;16.338;2023-04-28T02:53:04;100083.53;;;11.23;51.46
26859;BME280;14429;48.346;16.338;2023-04-28T02:55:30;100073.19;;;10.65;48.95
26859;BME280;14429;48.346;16.338;2023-04-28T02:57:55;100081.19;;;10.65;52.68
26859;BME280;14429;48.346;16.338;2023-04-28T03:00:21;100072.59;;;10.19;50.30
26859;BME280;14429;48.346;16.338;2023-04-28T03:02:46;100071.66;;;10.61;52.45
26859;BME280;14429;48.346;16.338;2023-04-28T03:05:11;100075.47;;;10.30;50.11
26859;BME280;14429;48.346;16.338;2023-04-28T03:07:38;100077.66;;;10.51;50.92
26859;BME280;14429;48.346;16.338;2023-04-28T03:10:05;100065.94;;;10.53;50.42
26859;BME280;14429;48.346;16.338;2023-04-28T03:12:30;100065.09;;;10.39;51.01
26859;BME280;14429;48.346;16.338;2023-04-28T03:14:57;100072.78;;;10.16;51.50
26859;BME280;14429;48.346;16.338;2023-04-28T03:17:22;100063.47;;;10.23;51.74
26859;BME280;14429;48.346;16.338;2023-04-28T03:19:48;100072.41;;;10.22;51.08
26859;BME280;14429;48.346;16.338;2023-04-28T03:22:13;100073.22;;;9.66;52.50
26859;BME280;14429;48.346;16.338;2023-04-28T03:24:40;100069.19;;;9.59;51.94
26859;BME280;14429;48.346;16.338;2023-04-28T03:27:05;100072.75;;;9.89;52.08
26859;BME280;14429;48.346;16.338;2023-04-28T03:29:31;100073.31;;;9.20;52.75
26859;BME280;14429;48.346;16.338;2023-04-28T03:31:56;100064.66;;;9.90;57.30
26859;BME280;14429;48.346;16.338;2023-04-28T03:34:22;100062.69;;;10.07;52.11
26859;BME280;14429;48.346;16.338;2023-04-28T03:36:47;100060.53;;;9.85;54.76
26859;BME280;14429;48.346;16.338;2023-04-28T03:39:13;100067.44;;;9.44;52.62
26859;BME280;14429;48.346;16.338;2023-04-28T03:41:39;100062.94;;;9.31;53.13
26859;BME280;14429;48.346;16.338;2023-04-28T03:44:07;100067.94;;;9.80;58.90
26859;BME280;14429;48.346;16.338;2023-04-28T03:46:32;100069.78;;;9.35;52.71
26859;BME280;14429;48.346;16.338;2023-04-28T03:48:57;100067.63;;;9.70;53.84
26859;BME280;14429;48.346;16.338;2023-04-28T03:51:23;100063.94;;;9.73;52.88
26859;BME280;14429;48.346;16.338;2023-04-28T03:53:48;100062.41;;;9.83;54.36
26859;BME280;14429;48.346;16.338;2023-04-28T03:56:14;100059.38;;;10.45;58.17
26859;BME280;14429;48.346;16.338;2023-04-28T03:58:40;100070.66;;;9.94;51.92
26859;BME280;14429;48.346;16.338;2023-04-28T04:01:06;100064.59;;;10.74;59.01
26859;BME280;14429;48.346;16.338;2023-04-28T04:03:31;100063.09;;;10.29;51.09
26859;BME280;14429;48.346;16.338;2023-04-28T04:05:57;100070.00;;;10.04;51.42
26859;BME280;14429;48.346;16.338;2023-04-28T04:08:23;100065.13;;;9.96;53.63
26859;BME280;14429;48.346;16.338;2023-04-28T04:10:48;100074.88;;;10.11;52.28
26859;BME280;14429;48.346;16.338;2023-04-28T04:13:13;100061.53;;;9.97;52.54
26859;BME280;14429;48.346;16.338;2023-04-28T04:15:40;100066.19;;;9.94;52.22
26859;BME280;14429;48.346;16.338;2023-04-28T04:18:06;100060.19;;;10.04;53.81
26859;BME280;14429;48.346;16.338;2023-04-28T04:20:31;100064.25;;;9.53;53.03
26859;BME280;14429;48.346;16.338;2023-04-28T04:22:56;100067.47;;;10.44;53.54
26859;BME280;14429;48.346;16.338;2023-04-28T04:25:22;100062.78;;;10.06;51.46
26859;BME280;14429;48.346;16.338;2023-04-28T04:27:47;100072.31;;;10.23;51.70
26859;BME280;14429;48.346;16.338;2023-04-28T04:30:13;100062.69;;;10.07;51.58
26859;BME280;14429;48.346;16.338;2023-04-28T04:32:40;100064.13;;;10.26;52.86
26859;BME280;14429;48.346;16.338;2023-04-28T04:35:06;100053.38;;;10.42;51.04
26859;BME280;14429;48.346;16.338;2023-04-28T04:37:32;100057.00;;;10.54;53.87
26859;BME280;14429;48.346;16.338;2023-04-28T04:39:57;100055.31;;;11.19;56.51
26859;BME280;14429;48.346;16.338;2023-04-28T04:42:23;100046.72;;;11.28;54.36
26859;BME280;14429;48.346;16.338;2023-04-28T04:44:48;100049.94;;;11.07;50.73
26859;BME280;14429;48.346;16.338;2023-04-28T04:47:14;100063.19;;;10.41;51.05
26859;BME280;14429;48.346;16.338;2023-04-28T04:49:41;100044.00;;;11.80;55.84
26859;BME280;14429;48.346;16.338;2023-04-28T04:52:06;100044.09;;;11.14;50.23
26859;BME280;14429;48.346;16.338;2023-04-28T04:54:31;100040.44;;;11.03;49.83
26859;BME280;14429;48.346;16.338;2023-04-28T04:56:57;100048.41;;;10.63;50.82
26859;BME280;14429;48.346;16.338;2023-04-28T04:59:22;100038.09;;;10.85;52.19
26859;BME280;14429;48.346;16.338;2023-04-28T05:01:48;100044.66;;;10.79;50.57
26859;BME280;14429;48.346;16.338;2023-04-28T05:04:13;100049.94;;;10.67;51.60
26859;BME280;14429;48.346;16.338;2023-04-28T05:06:40;100043.81;;;10.79;50.77
26859;BME280;14429;48.346;16.338;2023-04-28T05:09:06;100041.06;;;10.80;52.72
26859;BME280;14429;48.346;16.338;2023-04-28T05:11:31;100037.63;;;10.78;51.34
26859;BME280;14429;48.346;16.338;2023-04-28T05:13:56;100043.69;;;10.94;51.51
26859;BME280;14429;48.346;16.338;2023-04-28T05:16:22;100048.13;;;11.07;51.03
26859;BME280;14429;48.346;16.338;2023-04-28T05:18:47;100038.25;;;10.96;50.74
26859;BME280;14429;48.346;16.338;2023-04-28T05:21:13;100037.31;;;11.49;54.19
26859;BME280;14429;48.346;16.338;2023-04-28T05:23:39;100036.59;;;11.33;52.35
26859;BME280;14429;48.346;16.338;2023-04-28T05:26:05;100044.69;;;11.45;52.55
26859;BME280;14429;48.346;16.338;2023-04-28T05:28:30;100037.13;;;11.52;51.35
26859;BME280;14429;48.346;16.338;2023-04-28T05:30:56;100032.66;;;11.64;51.99
26859;BME280;14429;48.346;16.338;2023-04-28T05:33:21;100022.63;;;11.68;50.54
26859;BME280;14429;48.346;16.338;2023-04-28T05:35:47;100018.38;;;11.90;49.89
26859;BME280;14429;48.346;16.338;2023-04-28T05:38:13;100017.53;;;12.02;49.62
26859;BME280;14429;48.346;16.338;2023-04-28T05:40:39;100019.03;;;11.81;49.63
26859;BME280;14429;48.346;16.338;2023-04-28T05:43:05;100024.69;;;12.13;49.33
26859;BME280;14429;48.346;16.338;2023-04-28T05:45:30;100023.09;;;12.23;49.11
26859;BME280;14429;48.346;16.338;2023-04-28T05:47:56;100029.63;;;12.44;49.04
26859;BME280;14429;48.346;16.338;2023-04-28T05:50:21;100032.69;;;12.75;51.41
26859;BME280;14429;48.346;16.338;2023-04-28T05:52:47;100030.06;;;13.21;49.67
26859;BME280;14429;48.346;16.338;2023-04-28T05:55:12;100031.53;;;13.02;46.34
26859;BME280;14429;48.346;16.338;2023-04-28T05:57:39;100017.41;;;13.46;46.11
26859;BME280;14429;48.346;16.338;2023-04-28T06:00:06;100029.44;;;13.64;46.10
26859;BME280;14429;48.346;16.338;2023-04-28T06:02:31;100028.19;;;13.57;46.03
26859;BME280;14429;48.346;16.338;2023-04-28T06:04:57;100020.91;;;13.70;48.28
26859;BME280;14429;48.346;16.338;2023-04-28T06:07:22;100012.81;;;13.82;47.83
26859;BME280;14429;48.346;16.338;2023-04-28T06:09:48;100010.56;;;14.10;47.97
26859;BME280;14429;48.346;16.338;2023-04-28T06:12:13;100005.97;;;14.23;45.03
26859;BME280;14429;48.346;16.338;2023-04-28T06:14:40;100004.75;;;14.59;46.26
26859;BME280;14429;48.346;16.338;2023-04-28T06:17:05;100002.28;;;14.88;45.22
26859;BME280;14429;48.346;16.338;2023-04-28T06:19:31;100007.25;;;15.04;46.72
26859;BME280;14429;48.346;16.338;2023-04-28T06:21:56;100003.47;;;15.28;44.00
26859;BME280;14429;48.346;16.338;2023-04-28T06:24:21;100008.44;;;15.32;43.73
26859;BME280;14429;48.346;16.338;2023-04-28T06:26:47;100005.19;;;15.18;44.53
26859;BME280;14429;48.346;16.338;2023-04-28T06:29:12;99998.00;;;15.49;45.45
26859;BME280;14429;48.346;16.338;2023-04-28T06:31:39;100008.19;;;15.35;43.61
26859;BME280;14429;48.346;16.338;2023-04-28T06:34:05;99995.56;;;15.46;44.82
26859;BME280;14429;48.346;16.338;2023-04-28T06:36:30;100006.47;;;15.34;45.40
26859;BME280;14429;48.346;16.338;2023-04-28T06:38:56;100006.41;;;15.25;42.41
26859;BME280;14429;48.346;16.338;2023-04-28T06:41:21;100002.97;;;15.23;42.28
26859;BME280;14429;48.346;16.338;2023-04-28T06:43:47;99982.84;;;15.48;43.23
26859;BME280;14429;48.346;16.338;2023-04-28T06:46:13;99979.19;;;15.49;44.32
26859;BME280;14429;48.346;16.338;2023-04-28T06:48:40;99987.72;;;15.54;44.97
26859;BME280;14429;48.346;16.338;2023-04-28T06:51:05;99976.34;;;15.31;42.76
26859;BME280;14429;48.346;16.338;2023-04-28T06:53:30;99973.88;;;15.38;42.93
26859;BME280;14429;48.346;16.338;2023-04-28T06:55:56;99976.13;;;15.54;45.36
26859;BME280;14429;48.346;16.338;2023-04-28T06:58:21;99962.91;;;15.31;45.18
26859;BME280;14429;48.346;16.338;2023-04-28T07:00:47;99959.91;;;15.13;43.51
26859;BME280;14429;48.346;16.338;2023-04-28T07:03:12;99962.38;;;15.37;45.97
26859;BME280;14429;48.346;16.338;2023-04-28T07:05:39;99959.59;;;15.38;44.97
26859;BME280;14429;48.346;16.338;2023-04-28T07:08:05;99953.22;;;15.39;45.24
26859;BME280;14429;48.346;16.338;2023-04-28T07:10:30;99953.41;;;15.27;44.96
26859;BME280;14429;48.346;16.338;2023-04-28T07:12:56;99948.53;;;15.21;45.82
26859;BME280;14429;48.346;16.338;2023-04-28T07:15:21;99941.25;;;15.12;42.55
26859;BME280;14429;48.346;16.338;2023-04-28T07:17:47;99950.53;;;15.08;42.95
26859;BME280;14429;48.346;16.338;2023-04-28T07:20:13;99946.66;;;15.32;45.00
26859;BME280;14429;48.346;16.338;2023-04-28T07:22:40;99955.56;;;15.33;42.71
26859;BME280;14429;48.346;16.338;2023-04-28T07:25:06;99961.38;;;15.37;45.18
26859;BME280;14429;48.346;16.338;2023-04-28T07:27:32;99959.47;;;15.29;43.89
26859;BME280;14429;48.346;16.338;2023-04-28T07:29:57;99951.56;;;15.47;45.32
26859;BME280;14429;48.346;16.338;2023-04-28T07:32:22;99952.88;;;15.53;44.85
26859;BME280;14429;48.346;16.338;2023-04-28T07:34:48;99952.72;;;15.65;44.59
26859;BME280;14429;48.346;16.338;2023-04-28T07:37:13;99943.16;;;15.72;43.41
26859;BME280;14429;48.346;16.338;2023-04-28T07:39:40;99940.09;;;15.86;44.69
26859;BME280;14429;48.346;16.338;2023-04-28T07:42:06;99941.56;;;15.90;42.18
26859;BME280;14429;48.346;16.338;2023-04-28T07:44:31;99927.75;;;16.03;41.71
26859;BME280;14429;48.346;16.338;2023-04-28T07:46:58;99941.94;;;16.05;44.01
26859;BME280;14429;48.346;16.338;2023-04-28T07:49:24;99939.50;;;16.22;42.56
26859;BME280;14429;48.346;16.338;2023-04-28T07:51:49;99935.06;;;16.12;41.35
26859;BME280;14429;48.346;16.338;2023-04-28T07:54:14;99944.03;;;16.22;41.90
26859;BME280;14429;48.346;16.338;2023-04-28T07:56:41;99953.16;;;16.30;41.73
26859;BME280;14429;48.346;16.338;2023-04-28T07:59:06;99951.88;;;16.34;41.83
26859;BME280;14429;48.346;16.338;2023-04-28T08:01:32;99959.13;;;16.34;43.73
26859;BME280;14429;48.346;16.338;2023-04-28T08:03:57;99956.31;;;16.35;43.58
26859;BME280;14429;48.346;16.338;2023-04-28T08:06:23;99942.63;;;16.57;42.10
26859;BME280;14429;48.346;16.338;2023-04-28T08:08:48;99938.28;;;16.65;41.86
26859;BME280;14429;48.346;16.338;2023-04-28T08:11:14;99934.31;;;16.69;42.68
26859;BME280;14429;48.346;16.338;2023-04-28T08:13:40;99934.59;;;16.75;42.61
26859;BME280;14429;48.346;16.338;2023-04-28T08:16:06;99934.66;;;16.94;40.68
26859;BME280;14429;48.346;16.338;2023-04-28T08:18:31;99934.66;;;16.85;40.85
26859;BME280;14429;48.346;16.338;2023-04-28T08:20:57;99930.91;;;16.67;41.06
26859;BME280;14429;48.346;16.338;2023-04-28T08:23:22;99929.03;;;16.58;40.63
26859;BME280;14429;48.346;16.338;2023-04-28T08:25:48;99918.81;;;16.52;41.78
26859;BME280;14429;48.346;16.338;2023-04-28T08:28:14;99912.22;;;16.75;41.39
26859;BME280;14429;48.346;16.338;2023-04-28T08:30:41;99901.00;;;16.70;42.16
26859;BME280;14429;48.346;16.338;2023-04-28T08:33:06;99897.72;;;16.57;43.19
26859;BME280;14429;48.346;16.338;2023-04-28T08:35:32;99907.41;;;16.69;41.23
26859;BME280;14429;48.346;16.338;2023-04-28T08:37:57;99894.34;;;16.74;42.29
26859;BME280;14429;48.346;16.338;2023-04-28T08:40:23;99886.38;;;16.63;42.85
26859;BME280;14429;48.346;16.338;2023-04-28T08:42:48;99897.41;;;16.51;42.96
26859;BME280;14429;48.346;16.338;2023-04-28T08:45:14;99898.81;;;16.45;43.24
26859;BME280;14429;48.346;16.338;2023-04-28T08:47:42;99902.19;;;16.38;43.51
26859;BME280;14429;48.346;16.338;2023-04-28T08:50:08;99894.97;;;16.39;42.89
26859;BME280;14429;48.346;16.338;2023-04-28T08:52:34;99892.16;;;16.49;43.20
26859;BME280;14429;48.346;16.338;2023-04-28T08:55:04;99899.16;;;16.61;42.97
26859;BME280;14429;48.346;16.338;2023-04-28T08:57:35;99892.94;;;16.61;43.23
26859;BME280;14429;48.346;16.338;2023-04-28T09:00:02;99885.69;;;16.61;43.21
26859;BME280;14429;48.346;16.338;2023-04-28T09:02:27;99882.88;;;16.72;42.73
26859;BME280;14429;48.346;16.338;2023-04-28T09:04:54;99875.09;;;16.69;43.25
26859;BME280;14429;48.346;16.338;2023-04-28T09:07:19;99884.72;;;16.90;42.35
26859;BME280;14429;48.346;16.338;2023-04-28T09:09:45;99874.16;;;17.07;41.52
26859;BME280;14429;48.346;16.338;2023-04-28T09:12:10;99871.59;;;17.06;41.68
26859;BME280;14429;48.346;16.338;2023-04-28T09:14:36;99869.88;;;16.96;41.94
26859;BME280;14429;48.346;16.338;2023-04-28T09:17:09;99874.94;;;16.61;42.45
26859;BME280;14429;48.346;16.338;2023-04-28T09:19:35;99863.81;;;17.22;40.34
26859;BME280;14429;48.346;16.338;2023-04-28T09:22:03;99866.91;;;16.99;41.57
26859;BME280;14429;48.346;16.338;2023-04-28T09:24:30;99868.31;;;17.02;41.39
26859;BME280;14429;48.346;16.338;2023-04-28T09:26:56;99854.09;;;16.82;41.67
26859;BME280;14429;48.346;16.338;2023-04-28T09:29:22;99846.44;;;16.87;41.73
26859;BME280;14429;48.346;16.338;2023-04-28T09:31:47;99846.44;;;16.87;41.71
26859;BME280;14429;48.346;16.338;2023-04-28T09:34:12;99828.88;;;17.01;41.38
26859;BME280;14429;48.346;16.338;2023-04-28T09:36:38;99836.56;;;17.06;41.34
26859;BME280;14429;48.346;16.338;2023-04-28T09:39:05;99821.81;;;16.91;41.73
26859;BME280;14429;48.346;16.338;2023-04-28T09:41:37;99813.69;;;16.82;42.62
26859;BME280;14429;48.346;16.338;2023-04-28T09:44:13;99813.69;;;17.00;41.98
26859;BME280;14429;48.346;16.338;2023-04-28T09:46:39;99814.13;;;17.05;42.01
26859;BME280;14429;48.346;16.338;2023-04-28T09:49:05;99806.09;;;17.24;41.67
26859;BME280;14429;48.346;16.338;2023-04-28T09:51:30;99789.03;;;17.33;41.41
26859;BME280;14429;48.346;16.338;2023-04-28T09:53:58;99796.97;;;17.34;41.14
26859;BME280;14429;48.346;16.338;2023-04-28T09:56:26;99795.38;;;17.51;41.18
26859;BME280;14429;48.346;16.338;2023-04-28T09:58:52;99788.72;;;17.45;41.58
26859;BME280;14429;48.346;16.338;2023-04-28T10:01:19;99787.47;;;17.02;42.10
26859;BME280;14429;48.346;16.338;2023-04-28T10:03:44;99778.38;;;17.41;41.84
26859;BME280;14429;48.346;16.338;2023-04-28T10:06:10;99763.88;;;17.42;41.54
26859;BME280;14429;48.346;16.338;2023-04-28T10:08:36;99775.34;;;17.53;41.94
26859;BME280;14429;48.346;16.338;2023-04-28T10:11:03;99778.13;;;17.25;42.05
26859;BME280;14429;48.346;16.338;2023-04-28T10:13:30;99770.47;;;17.02;42.30
26859;BME280;14429;48.346;16.338;2023-04-28T10:15:56;99767.63;;;17.22;42.54
26859;BME280;14429;48.346;16.338;2023-04-28T10:18:22;99771.22;;;17.58;41.73
26859;BME280;14429;48.346;16.338;2023-04-28T10:20:59;99764.75;;;17.78;41.49
26859;BME280;14429;48.346;16.338;2023-04-28T10:23:53;99760.72;;;18.01;40.82
26859;BME280;14429;48.346;16.338;2023-04-28T10:26:35;99762.09;;;18.05;40.54
26859;BME280;14429;48.346;16.338;2023-04-28T10:29:13;99750.81;;;18.18;41.10
26859;BME280;14429;48.346;16.338;2023-04-28T10:32:14;99767.41;;;18.23;40.87
26859;BME280;14429;48.346;16.338;2023-04-28T10:34:40;99747.91;;;18.29;40.51
26859;BME280;14429;48.346;16.338;2023-04-28T10:37:05;99750.44;;;18.31;40.36
26859;BME280;14429;48.346;16.338;2023-04-28T10:39:31;99737.03;;;18.38;40.50
26859;BME280;14429;48.346;16.338;2023-04-28T10:41:56;99746.97;;;18.38;39.86
26859;BME280;14429;48.346;16.338;2023-04-28T10:44:42;99740.75;;;18.55;40.46
26859;BME280;14429;48.346;16.338;2023-04-28T10:47:08;99740.66;;;18.64;40.32
26859;BME280;14429;48.346;16.338;2023-04-28T10:50:04;99732.81;;;18.70;39.67
26859;BME280;14429;48.346;16.338;2023-04-28T10:52:48;99735.44;;;18.63;40.58
26859;BME280;14429;48.346;16.338;2023-04-28T10:55:25;99724.75;;;18.78;40.25
26859;BME280;14429;48.346;16.338;2023-04-28T11:00:51;99718.66;;;18.76;40.01
26859;BME280;14429;48.346;16.338;2023-04-28T11:03:37;99707.16;;;18.74;39.76
26859;BME280;14429;48.346;16.338;2023-04-28T11:06:18;99700.50;;;18.86;39.58
26859;BME280;14429;48.346;16.338;2023-04-28T11:08:44;99704.00;;;18.96;39.24
26859;BME280;14429;48.346;16.338;2023-04-28T11:11:14;99704.84;;;18.96;39.77
26859;BME280;14429;48.346;16.338;2023-04-28T11:13:39;99696.75;;;18.96;39.25
26859;BME280;14429;48.346;16.338;2023-04-28T11:16:06;99702.00;;;18.98;39.42
26859;BME280;14429;48.346;16.338;2023-04-28T11:18:43;99671.63;;;19.04;39.39
26859;BME280;14429;48.346;16.338;2023-04-28T11:21:13;99672.25;;;18.98;39.22
26859;BME280;14429;48.346;16.338;2023-04-28T11:23:38;99678.69;;;18.97;39.05
26859;BME280;14429;48.346;16.338;2023-04-28T11:26:04;99668.88;;;18.96;40.27
26859;BME280;14429;48.346;16.338;2023-04-28T11:28:29;99668.88;;;18.96;39.60
26859;BME280;14429;48.346;16.338;2023-04-28T11:31:11;99661.00;;;19.10;38.70
26859;BME280;14429;48.346;16.338;2023-04-28T11:33:37;99654.97;;;18.91;40.47
26859;BME280;14429;48.346;16.338;2023-04-28T11:36:04;99640.47;;;18.92;39.32
26859;BME280;14429;48.346;16.338;2023-04-28T11:38:29;99641.63;;;19.15;39.76
26859;BME280;14429;48.346;16.338;2023-04-28T11:40:55;99645.22;;;19.23;39.16
26859;BME280;14429;48.346;16.338;2023-04-28T11:43:27;99633.97;;;18.85;40.00
26859;BME280;14429;48.346;16.338;2023-04-28T11:45:53;99629.91;;;19.39;38.79
26859;BME280;14429;48.346;16.338;2023-04-28T11:48:23;99631.53;;;19.24;38.55
26859;BME280;14429;48.346;16.338;2023-04-28T11:50:48;99624.75;;;19.20;39.00
26859;BME280;14429;48.346;16.338;2023-04-28T11:53:14;99631.88;;;19.21;39.10
26859;BME280;14429;48.346;16.338;2023-04-28T11:55:39;99638.34;;;19.03;39.04
26859;BME280;14429;48.346;16.338;2023-04-28T11:58:17;99634.88;;;18.93;38.95
26859;BME280;14429;48.346;16.338;2023-04-28T12:00:43;99628.06;;;19.07;38.96
26859;BME280;14429;48.346;16.338;2023-04-28T12:03:08;99623.41;;;18.74;39.54
26859;BME280;14429;48.346;16.338;2023-04-28T12:05:43;99628.38;;;19.04;39.40
26859;BME280;14429;48.346;16.338;2023-04-28T12:08:08;99621.59;;;19.00;39.14
26859;BME280;14429;48.346;16.338;2023-04-28T12:10:34;99619.59;;;18.85;38.81
26859;BME280;14429;48.346;16.338;2023-04-28T12:13:14;99632.88;;;18.78;39.66
26859;BME280;14429;48.346;16.338;2023-04-28T12:15:39;99642.16;;;18.93;39.02
26859;BME280;14429;48.346;16.338;2023-04-28T12:18:08;99628.03;;;18.82;39.46
26859;BME280;14429;48.346;16.338;2023-04-28T12:20:36;99637.06;;;18.90;39.62
26859;BME280;14429;48.346;16.338;2023-04-28T12:23:02;99632.06;;;19.03;39.25
26859;BME280;14429;48.346;16.338;2023-04-28T12:25:28;99634.28;;;18.82;39.84
26859;BME280;14429;48.346;16.338;2023-04-28T12:28:01;99629.16;;;18.79;39.83
26859;BME280;14429;48.346;16.338;2023-04-28T12:30:28;99635.06;;;18.75;40.03
26859;BME280;14429;48.346;16.338;2023-04-28T12:32:54;99639.84;;;18.81;39.88
26859;BME280;14429;48.346;16.338;2023-04-28T12:35:20;99655.75;;;18.66;40.51
26859;BME280;14429;48.346;16.338;2023-04-28T12:37:47;99641.94;;;18.87;40.43
26859;BME280;14429;48.346;16.338;2023-04-28T12:40:12;99620.53;;;18.93;39.46
26859;BME280;14429;48.346;16.338;2023-04-28T12:42:38;99622.84;;;19.13;39.90
26859;BME280;14429;48.346;16.338;2023-04-28T12:45:05;99625.94;;;19.18;39.71